sensor_id;sensor_type;location;lat;lon;timestamp;temperature;humidity
3690;DHT22;1861;50.240;8.596;2023-07-16T00:02:11;21.90;99.90
3690;DHT22;1861;50.240;8.596;2023-07-16T00:04:39;21.80;99.90
3690;DHT22;1861;50.240;8.596;2023-07-16T00:07:07;21.90;99.90
3690;DHT22;1861;50.240;8.596;2023-07-16T00:09:37;21.90;99.90
3690;DHT22;1861;50.240;8.596;2023-07-16T00:12:07;21.80;99.90
3690;DHT22;1861;50.240;8.596;2023-07-16T00:14:35;21.80;99.90
3690;DHT22;1861;50.240;8.596;2023-07-16T00:17:03;21.90;99.90
3690;DHT22;1861;50.240;8.596;2023-07-16T00:19:32;21.80;99.90
3690;DHT22;1861;50.240;8.596;2023-07-16T00:22:00;21.80;99.90
3690;DHT22;1861;50.240;8.596;2023-07-16T00:24:28;21.90;99.90
3690;DHT22;1861;50.240;8.596;2023-07-16T00:26:57;21.80;99.90
3690;DHT22;1861;50.240;8.596;2023-07-16T00:29:26;21.80;99.90
3690;DHT22;1861;50.240;8.596;2023-07-16T00:31:54;21.70;99.90
3690;DHT22;1861;50.240;8.596;2023-07-16T00:34:22;21.80;99.90
3690;DHT22;1861;50.240;8.596;2023-07-16T00:36:51;21.80;99.90
3690;DHT22;1861;50.240;8.596;2023-07-16T00:39:19;21.80;99.90
3690;DHT22;1861;50.240;8.596;2023-07-16T00:41:47;21.90;99.90
3690;DHT22;1861;50.240;8.596;2023-07-16T00:44:15;21.90;99.90
3690;DHT22;1861;50.240;8.596;2023-07-16T00:46:44;21.90;99.90
3690;DHT22;1861;50.240;8.596;2023-07-16T00:49:12;21.80;99.90
3690;DHT22;1861;50.240;8.596;2023-07-16T00:51:41;21.90;99.90
3690;DHT22;1861;50.240;8.596;2023-07-16T00:54:10;21.80;99.90
3690;DHT22;1861;50.240;8.596;2023-07-16T00:56:39;21.70;99.90
3690;DHT22;1861;50.240;8.596;2023-07-16T00:59:07;21.70;99.90
3690;DHT22;1861;50.240;8.596;2023-07-16T01:01:36;21.70;99.90
3690;DHT22;1861;50.240;8.596;2023-07-16T01:04:06;21.70;99.90
3690;DHT22;1861;50.240;8.596;2023-07-16T01:06:36;21.70;99.90
3690;DHT22;1861;50.240;8.596;2023-07-16T01:09:07;21.70;99.90
3690;DHT22;1861;50.240;8.596;2023-07-16T01:11:37;21.70;99.90
3690;DHT22;1861;50.240;8.596;2023-07-16T01:14:08;21.70;99.90
3690;DHT22;1861;50.240;8.596;2023-07-16T01:16:36;21.70;99.90
3690;DHT22;1861;50.240;8.596;2023-07-16T01:19:05;21.70;99.90
3690;DHT22;1861;50.240;8.596;2023-07-16T01:21:38;21.60;99.90
3690;DHT22;1861;50.240;8.596;2023-07-16T01:30:15;21.60;99.90
3690;DHT22;1861;50.240;8.596;2023-07-16T01:32:44;21.60;99.90
3690;DHT22;1861;50.240;8.596;2023-07-16T01:35:14;21.60;99.90
3690;DHT22;1861;50.240;8.596;2023-07-16T01:37:43;21.60;99.90
3690;DHT22;1861;50.240;8.596;2023-07-16T01:40:11;21.60;99.90
3690;DHT22;1861;50.240;8.596;2023-07-16T01:42:40;21.60;99.90
3690;DHT22;1861;50.240;8.596;2023-07-16T01:45:09;21.50;99.90
3690;DHT22;1861;50.240;8.596;2023-07-16T01:47:50;21.50;99.90
3690;DHT22;1861;50.240;8.596;2023-07-16T01:50:21;21.50;99.90
3690;DHT22;1861;50.240;8.596;2023-07-16T01:52:50;21.50;99.90
3690;DHT22;1861;50.240;8.596;2023-07-16T01:55:18;21.50;99.90
3690;DHT22;1861;50.240;8.596;2023-07-16T01:57:46;21.40;99.90
3690;DHT22;1861;50.240;8.596;2023-07-16T02:00:14;21.40;99.90
3690;DHT22;1861;50.240;8.596;2023-07-16T02:02:47;21.50;99.90
3690;DHT22;1861;50.240;8.596;2023-07-16T02:05:16;21.50;99.90
3690;DHT22;1861;50.240;8.596;2023-07-16T02:07:44;21.40;99.90
3690;DHT22;1861;50.240;8.596;2023-07-16T02:10:12;21.40;99.90
3690;DHT22;1861;50.240;8.596;2023-07-16T02:12:40;21.30;99.90
3690;DHT22;1861;50.240;8.596;2023-07-16T02:15:09;21.30;99.90
3690;DHT22;1861;50.240;8.596;2023-07-16T02:17:37;21.30;99.90
3690;DHT22;1861;50.240;8.596;2023-07-16T02:20:08;21.20;99.90
3690;DHT22;1861;50.240;8.596;2023-07-16T02:22:38;21.20;99.90
3690;DHT22;1861;50.240;8.596;2023-07-16T02:25:07;21.30;99.90
3690;DHT22;1861;50.240;8.596;2023-07-16T02:27:35;21.20;99.90
3690;DHT22;1861;50.240;8.596;2023-07-16T02:30:04;21.20;99.90
3690;DHT22;1861;50.240;8.596;2023-07-16T02:32:33;21.20;99.90
3690;DHT22;1861;50.240;8.596;2023-07-16T02:35:02;21.20;99.90
3690;DHT22;1861;50.240;8.596;2023-07-16T02:37:32;21.20;99.90
3690;DHT22;1861;50.240;8.596;2023-07-16T02:40:00;21.20;99.90
3690;DHT22;1861;50.240;8.596;2023-07-16T02:42:29;21.20;99.90
3690;DHT22;1861;50.240;8.596;2023-07-16T02:44:57;21.20;99.90
3690;DHT22;1861;50.240;8.596;2023-07-16T02:47:25;21.20;99.90
3690;DHT22;1861;50.240;8.596;2023-07-16T02:49:53;21.10;99.90
3690;DHT22;1861;50.240;8.596;2023-07-16T02:52:21;21.10;99.90
3690;DHT22;1861;50.240;8.596;2023-07-16T02:54:50;21.10;99.90
3690;DHT22;1861;50.240;8.596;2023-07-16T02:57:20;21.10;99.90
3690;DHT22;1861;50.240;8.596;2023-07-16T02:59:48;21.10;99.90
3690;DHT22;1861;50.240;8.596;2023-07-16T03:02:16;21.10;99.90
3690;DHT22;1861;50.240;8.596;2023-07-16T03:04:45;21.00;99.90
3690;DHT22;1861;50.240;8.596;2023-07-16T03:07:13;21.00;99.90
3690;DHT22;1861;50.240;8.596;2023-07-16T03:09:41;21.10;99.90
3690;DHT22;1861;50.240;8.596;2023-07-16T03:12:11;21.00;99.90
3690;DHT22;1861;50.240;8.596;2023-07-16T03:14:39;21.00;99.90
3690;DHT22;1861;50.240;8.596;2023-07-16T03:17:07;21.00;99.90
3690;DHT22;1861;50.240;8.596;2023-07-16T03:19:36;20.90;99.90
3690;DHT22;1861;50.240;8.596;2023-07-16T03:22:04;21.00;99.90
3690;DHT22;1861;50.240;8.596;2023-07-16T03:24:33;21.00;99.90
3690;DHT22;1861;50.240;8.596;2023-07-16T03:27:02;21.00;99.90
3690;DHT22;1861;50.240;8.596;2023-07-16T03:29:46;21.00;99.90
3690;DHT22;1861;50.240;8.596;2023-07-16T03:32:16;20.90;99.90
3690;DHT22;1861;50.240;8.596;2023-07-16T03:34:45;20.90;99.90
3690;DHT22;1861;50.240;8.596;2023-07-16T03:37:13;20.90;99.90
3690;DHT22;1861;50.240;8.596;2023-07-16T03:39:41;20.90;99.90
3690;DHT22;1861;50.240;8.596;2023-07-16T03:42:09;20.90;99.90
3690;DHT22;1861;50.240;8.596;2023-07-16T03:44:37;20.80;99.90
3690;DHT22;1861;50.240;8.596;2023-07-16T03:47:07;20.80;99.90
3690;DHT22;1861;50.240;8.596;2023-07-16T03:49:35;20.90;99.90
3690;DHT22;1861;50.240;8.596;2023-07-16T03:52:04;20.90;99.90
3690;DHT22;1861;50.240;8.596;2023-07-16T03:54:32;20.90;99.90
3690;DHT22;1861;50.240;8.596;2023-07-16T03:57:00;20.90;99.90
3690;DHT22;1861;50.240;8.596;2023-07-16T03:59:29;20.90;99.90
3690;DHT22;1861;50.240;8.596;2023-07-16T04:01:58;20.90;99.90
3690;DHT22;1861;50.240;8.596;2023-07-16T04:04:27;20.90;99.90
3690;DHT22;1861;50.240;8.596;2023-07-16T04:06:55;20.90;99.90
3690;DHT22;1861;50.240;8.596;2023-07-16T04:09:23;20.90;99.90
3690;DHT22;1861;50.240;8.596;2023-07-16T04:11:51;20.80;99.90
3690;DHT22;1861;50.240;8.596;2023-07-16T04:14:20;20.90;99.90
3690;DHT22;1861;50.240;8.596;2023-07-16T04:16:48;20.90;99.90
3690;DHT22;1861;50.240;8.596;2023-07-16T04:19:16;20.90;99.90
3690;DHT22;1861;50.240;8.596;2023-07-16T04:21:45;20.90;99.90
3690;DHT22;1861;50.240;8.596;2023-07-16T04:24:13;20.90;99.90
3690;DHT22;1861;50.240;8.596;2023-07-16T04:26:41;20.90;99.90
3690;DHT22;1861;50.240;8.596;2023-07-16T04:29:10;20.80;99.90
3690;DHT22;1861;50.240;8.596;2023-07-16T04:31:38;20.90;99.90
3690;DHT22;1861;50.240;8.596;2023-07-16T04:34:06;20.90;99.90
3690;DHT22;1861;50.240;8.596;2023-07-16T04:36:35;20.90;99.90
3690;DHT22;1861;50.240;8.596;2023-07-16T04:39:05;20.90;99.90
3690;DHT22;1861;50.240;8.596;2023-07-16T04:41:33;20.90;99.90
3690;DHT22;1861;50.240;8.596;2023-07-16T04:44:01;20.90;99.90
3690;DHT22;1861;50.240;8.596;2023-07-16T04:46:29;20.90;99.90
3690;DHT22;1861;50.240;8.596;2023-07-16T04:48:58;20.90;99.90
3690;DHT22;1861;50.240;8.596;2023-07-16T04:51:26;20.90;99.90
3690;DHT22;1861;50.240;8.596;2023-07-16T04:53:54;20.90;99.90
3690;DHT22;1861;50.240;8.596;2023-07-16T04:56:23;20.90;99.90
3690;DHT22;1861;50.240;8.596;2023-07-16T04:58:52;20.90;99.90
3690;DHT22;1861;50.240;8.596;2023-07-16T05:01:20;20.90;99.90
3690;DHT22;1861;50.240;8.596;2023-07-16T05:03:48;20.90;99.90
3690;DHT22;1861;50.240;8.596;2023-07-16T05:06:16;20.90;99.90
3690;DHT22;1861;50.240;8.596;2023-07-16T05:08:45;20.90;99.90
3690;DHT22;1861;50.240;8.596;2023-07-16T05:11:14;20.80;99.90
3690;DHT22;1861;50.240;8.596;2023-07-16T05:13:44;20.90;99.90
3690;DHT22;1861;50.240;8.596;2023-07-16T05:16:12;20.90;99.90
3690;DHT22;1861;50.240;8.596;2023-07-16T05:18:40;21.00;99.90
3690;DHT22;1861;50.240;8.596;2023-07-16T05:21:08;20.90;99.90
3690;DHT22;1861;50.240;8.596;2023-07-16T05:23:36;21.00;99.90
3690;DHT22;1861;50.240;8.596;2023-07-16T05:26:05;20.90;99.90
3690;DHT22;1861;50.240;8.596;2023-07-16T05:28:33;21.00;99.90
3690;DHT22;1861;50.240;8.596;2023-07-16T05:31:04;21.00;99.90
3690;DHT22;1861;50.240;8.596;2023-07-16T05:33:32;21.00;99.90
3690;DHT22;1861;50.240;8.596;2023-07-16T05:36:00;21.00;99.90
3690;DHT22;1861;50.240;8.596;2023-07-16T05:38:29;20.90;99.90
3690;DHT22;1861;50.240;8.596;2023-07-16T05:41:00;21.00;99.90
3690;DHT22;1861;50.240;8.596;2023-07-16T05:43:29;21.00;99.90
3690;DHT22;1861;50.240;8.596;2023-07-16T05:45:57;21.00;99.90
3690;DHT22;1861;50.240;8.596;2023-07-16T05:48:27;21.10;99.90
3690;DHT22;1861;50.240;8.596;2023-07-16T05:50:55;21.00;99.90
3690;DHT22;1861;50.240;8.596;2023-07-16T05:53:23;21.10;99.90
3690;DHT22;1861;50.240;8.596;2023-07-16T05:55:51;21.00;99.90
3690;DHT22;1861;50.240;8.596;2023-07-16T05:58:20;20.90;99.90
3690;DHT22;1861;50.240;8.596;2023-07-16T06:00:48;20.90;99.90
3690;DHT22;1861;50.240;8.596;2023-07-16T06:03:16;20.90;99.90
3690;DHT22;1861;50.240;8.596;2023-07-16T06:05:47;21.00;99.90
3690;DHT22;1861;50.240;8.596;2023-07-16T06:08:15;20.90;99.90
3690;DHT22;1861;50.240;8.596;2023-07-16T06:10:43;21.00;99.90
3690;DHT22;1861;50.240;8.596;2023-07-16T06:13:11;20.90;99.90
3690;DHT22;1861;50.240;8.596;2023-07-16T06:15:39;20.90;99.90
3690;DHT22;1861;50.240;8.596;2023-07-16T06:18:07;21.00;99.90
3690;DHT22;1861;50.240;8.596;2023-07-16T06:20:35;21.00;99.90
3690;DHT22;1861;50.240;8.596;2023-07-16T06:23:05;21.00;99.90
3690;DHT22;1861;50.240;8.596;2023-07-16T06:25:33;21.00;99.90
3690;DHT22;1861;50.240;8.596;2023-07-16T06:28:01;21.00;99.90
3690;DHT22;1861;50.240;8.596;2023-07-16T06:30:29;21.00;99.90
3690;DHT22;1861;50.240;8.596;2023-07-16T06:32:59;21.00;99.90
3690;DHT22;1861;50.240;8.596;2023-07-16T06:35:27;21.00;99.90
3690;DHT22;1861;50.240;8.596;2023-07-16T06:37:55;21.00;99.90
3690;DHT22;1861;50.240;8.596;2023-07-16T06:40:25;21.10;99.90
3690;DHT22;1861;50.240;8.596;2023-07-16T06:42:53;21.10;99.90
3690;DHT22;1861;50.240;8.596;2023-07-16T06:45:21;21.10;99.90
3690;DHT22;1861;50.240;8.596;2023-07-16T06:47:49;21.20;99.90
3690;DHT22;1861;50.240;8.596;2023-07-16T06:50:18;21.10;99.90
3690;DHT22;1861;50.240;8.596;2023-07-16T06:52:46;21.10;99.90
3690;DHT22;1861;50.240;8.596;2023-07-16T06:55:14;21.20;99.90
3690;DHT22;1861;50.240;8.596;2023-07-16T06:57:43;21.20;99.90
3690;DHT22;1861;50.240;8.596;2023-07-16T07:00:12;21.10;99.90
3690;DHT22;1861;50.240;8.596;2023-07-16T07:02:41;21.20;99.90
3690;DHT22;1861;50.240;8.596;2023-07-16T07:05:09;21.20;99.90
3690;DHT22;1861;50.240;8.596;2023-07-16T07:07:38;21.20;99.90
3690;DHT22;1861;50.240;8.596;2023-07-16T07:10:07;21.20;99.90
3690;DHT22;1861;50.240;8.596;2023-07-16T07:12:35;21.20;99.90
3690;DHT22;1861;50.240;8.596;2023-07-16T07:15:07;21.30;99.90
3690;DHT22;1861;50.240;8.596;2023-07-16T07:17:35;21.40;99.90
3690;DHT22;1861;50.240;8.596;2023-07-16T07:20:05;21.40;99.90
3690;DHT22;1861;50.240;8.596;2023-07-16T07:22:33;21.40;99.90
3690;DHT22;1861;50.240;8.596;2023-07-16T07:25:02;21.30;99.90
3690;DHT22;1861;50.240;8.596;2023-07-16T07:27:30;21.30;99.90
3690;DHT22;1861;50.240;8.596;2023-07-16T07:29:59;21.30;99.90
3690;DHT22;1861;50.240;8.596;2023-07-16T07:32:29;21.40;99.90
3690;DHT22;1861;50.240;8.596;2023-07-16T07:34:57;21.30;99.90
3690;DHT22;1861;50.240;8.596;2023-07-16T07:37:29;21.30;99.90
3690;DHT22;1861;50.240;8.596;2023-07-16T07:39:59;21.30;99.90
3690;DHT22;1861;50.240;8.596;2023-07-16T07:42:27;21.30;99.90
3690;DHT22;1861;50.240;8.596;2023-07-16T07:44:57;21.40;99.90
3690;DHT22;1861;50.240;8.596;2023-07-16T07:47:25;21.30;99.90
3690;DHT22;1861;50.240;8.596;2023-07-16T07:49:55;21.40;99.90
3690;DHT22;1861;50.240;8.596;2023-07-16T07:52:23;21.50;99.90
3690;DHT22;1861;50.240;8.596;2023-07-16T07:54:51;21.50;99.90
3690;DHT22;1861;50.240;8.596;2023-07-16T07:57:19;21.50;99.90
3690;DHT22;1861;50.240;8.596;2023-07-16T07:59:47;21.50;99.90
3690;DHT22;1861;50.240;8.596;2023-07-16T08:02:19;21.60;99.90
3690;DHT22;1861;50.240;8.596;2023-07-16T08:04:50;21.60;99.90
3690;DHT22;1861;50.240;8.596;2023-07-16T08:07:22;21.60;99.90
3690;DHT22;1861;50.240;8.596;2023-07-16T08:09:50;21.60;99.90
3690;DHT22;1861;50.240;8.596;2023-07-16T08:12:19;21.60;99.90
3690;DHT22;1861;50.240;8.596;2023-07-16T08:14:47;21.60;99.90
3690;DHT22;1861;50.240;8.596;2023-07-16T08:17:16;21.50;99.90
3690;DHT22;1861;50.240;8.596;2023-07-16T08:19:46;21.60;99.90
3690;DHT22;1861;50.240;8.596;2023-07-16T08:22:14;21.60;99.90
3690;DHT22;1861;50.240;8.596;2023-07-16T08:24:43;21.60;99.90
3690;DHT22;1861;50.240;8.596;2023-07-16T08:27:11;21.60;99.90
3690;DHT22;1861;50.240;8.596;2023-07-16T08:29:39;21.50;99.90
3690;DHT22;1861;50.240;8.596;2023-07-16T08:32:08;21.60;99.90
3690;DHT22;1861;50.240;8.596;2023-07-16T08:34:36;21.60;99.90
3690;DHT22;1861;50.240;8.596;2023-07-16T08:37:05;21.60;99.90
3690;DHT22;1861;50.240;8.596;2023-07-16T08:39:34;21.70;99.90
3690;DHT22;1861;50.240;8.596;2023-07-16T08:42:04;21.70;99.80
3690;DHT22;1861;50.240;8.596;2023-07-16T08:44:33;21.70;99.80
3690;DHT22;1861;50.240;8.596;2023-07-16T08:47:01;21.70;99.50
3690;DHT22;1861;50.240;8.596;2023-07-16T08:49:30;21.70;99.90
3690;DHT22;1861;50.240;8.596;2023-07-16T08:51:59;21.70;99.20
3690;DHT22;1861;50.240;8.596;2023-07-16T08:54:28;21.70;99.30
3690;DHT22;1861;50.240;8.596;2023-07-16T08:56:57;21.80;99.50
3690;DHT22;1861;50.240;8.596;2023-07-16T08:59:27;21.70;98.90
3690;DHT22;1861;50.240;8.596;2023-07-16T09:01:55;21.70;99.10
3690;DHT22;1861;50.240;8.596;2023-07-16T09:04:24;21.80;99.30
3690;DHT22;1861;50.240;8.596;2023-07-16T09:06:52;21.80;99.20
3690;DHT22;1861;50.240;8.596;2023-07-16T09:09:22;21.90;99.60
3690;DHT22;1861;50.240;8.596;2023-07-16T09:11:51;21.80;99.10
3690;DHT22;1861;50.240;8.596;2023-07-16T09:14:19;21.90;99.40
3690;DHT22;1861;50.240;8.596;2023-07-16T09:16:50;21.90;99.30
3690;DHT22;1861;50.240;8.596;2023-07-16T09:19:19;21.90;99.10
3690;DHT22;1861;50.240;8.596;2023-07-16T09:21:47;21.90;99.10
3690;DHT22;1861;50.240;8.596;2023-07-16T09:24:16;21.90;99.10
3690;DHT22;1861;50.240;8.596;2023-07-16T09:26:48;21.90;98.70
3690;DHT22;1861;50.240;8.596;2023-07-16T09:29:16;21.90;98.60
3690;DHT22;1861;50.240;8.596;2023-07-16T09:31:56;21.90;98.30
3690;DHT22;1861;50.240;8.596;2023-07-16T09:34:27;22.00;98.30
3690;DHT22;1861;50.240;8.596;2023-07-16T09:36:56;22.00;98.00
3690;DHT22;1861;50.240;8.596;2023-07-16T09:39:25;22.00;97.80
3690;DHT22;1861;50.240;8.596;2023-07-16T09:41:54;22.00;97.70
3690;DHT22;1861;50.240;8.596;2023-07-16T09:44:23;22.00;97.80
3690;DHT22;1861;50.240;8.596;2023-07-16T09:46:51;22.00;97.10
3690;DHT22;1861;50.240;8.596;2023-07-16T09:49:21;22.00;96.80
3690;DHT22;1861;50.240;8.596;2023-07-16T09:51:52;22.00;96.10
3690;DHT22;1861;50.240;8.596;2023-07-16T09:54:25;21.90;96.60
3690;DHT22;1861;50.240;8.596;2023-07-16T09:56:57;22.00;97.40
3690;DHT22;1861;50.240;8.596;2023-07-16T09:59:28;22.10;97.10
3690;DHT22;1861;50.240;8.596;2023-07-16T10:01:56;22.10;97.20
3690;DHT22;1861;50.240;8.596;2023-07-16T10:04:37;22.10;97.40
3690;DHT22;1861;50.240;8.596;2023-07-16T10:07:07;22.10;97.30
3690;DHT22;1861;50.240;8.596;2023-07-16T10:09:36;22.10;96.90
3690;DHT22;1861;50.240;8.596;2023-07-16T10:12:23;22.10;97.00
3690;DHT22;1861;50.240;8.596;2023-07-16T10:14:52;22.10;97.40
3690;DHT22;1861;50.240;8.596;2023-07-16T10:17:22;22.10;97.60
3690;DHT22;1861;50.240;8.596;2023-07-16T10:19:56;22.10;97.20
3690;DHT22;1861;50.240;8.596;2023-07-16T10:22:32;22.10;96.70
3690;DHT22;1861;50.240;8.596;2023-07-16T10:25:01;22.10;97.00
3690;DHT22;1861;50.240;8.596;2023-07-16T10:27:31;22.20;97.00
3690;DHT22;1861;50.240;8.596;2023-07-16T10:30:00;22.20;97.60
3690;DHT22;1861;50.240;8.596;2023-07-16T10:32:31;22.30;97.90
3690;DHT22;1861;50.240;8.596;2023-07-16T10:35:01;22.30;97.80
3690;DHT22;1861;50.240;8.596;2023-07-16T10:37:29;22.30;97.20
3690;DHT22;1861;50.240;8.596;2023-07-16T10:39:59;22.20;97.10
3690;DHT22;1861;50.240;8.596;2023-07-16T10:42:27;22.30;97.00
3690;DHT22;1861;50.240;8.596;2023-07-16T10:44:58;22.30;97.20
3690;DHT22;1861;50.240;8.596;2023-07-16T10:47:30;22.30;97.10
3690;DHT22;1861;50.240;8.596;2023-07-16T10:49:59;22.30;97.30
3690;DHT22;1861;50.240;8.596;2023-07-16T10:52:29;22.40;97.30
3690;DHT22;1861;50.240;8.596;2023-07-16T10:54:57;22.40;97.50
3690;DHT22;1861;50.240;8.596;2023-07-16T10:57:26;22.40;97.50
3690;DHT22;1861;50.240;8.596;2023-07-16T10:59:56;22.50;96.00
3690;DHT22;1861;50.240;8.596;2023-07-16T11:02:25;22.50;95.20
3690;DHT22;1861;50.240;8.596;2023-07-16T11:04:54;22.40;95.80
3690;DHT22;1861;50.240;8.596;2023-07-16T11:07:26;22.40;96.30
3690;DHT22;1861;50.240;8.596;2023-07-16T11:09:55;22.50;96.10
3690;DHT22;1861;50.240;8.596;2023-07-16T11:12:24;22.50;95.70
3690;DHT22;1861;50.240;8.596;2023-07-16T11:14:54;22.60;95.90
3690;DHT22;1861;50.240;8.596;2023-07-16T11:17:24;22.60;96.30
3690;DHT22;1861;50.240;8.596;2023-07-16T11:19:53;22.60;96.40
3690;DHT22;1861;50.240;8.596;2023-07-16T11:22:25;22.60;96.70
3690;DHT22;1861;50.240;8.596;2023-07-16T11:24:55;22.70;97.20
3690;DHT22;1861;50.240;8.596;2023-07-16T11:27:25;22.70;97.30
3690;DHT22;1861;50.240;8.596;2023-07-16T11:29:55;22.70;97.00
3690;DHT22;1861;50.240;8.596;2023-07-16T11:32:29;22.60;96.80
3690;DHT22;1861;50.240;8.596;2023-07-16T11:34:58;22.70;97.10
3690;DHT22;1861;50.240;8.596;2023-07-16T11:37:27;22.60;96.60
3690;DHT22;1861;50.240;8.596;2023-07-16T11:39:57;22.60;97.00
3690;DHT22;1861;50.240;8.596;2023-07-16T11:42:29;22.60;97.10
3690;DHT22;1861;50.240;8.596;2023-07-16T11:44:58;22.60;96.80
3690;DHT22;1861;50.240;8.596;2023-07-16T11:47:27;22.70;96.30
3690;DHT22;1861;50.240;8.596;2023-07-16T11:49:55;22.70;95.90
3690;DHT22;1861;50.240;8.596;2023-07-16T11:52:25;22.70;95.60
3690;DHT22;1861;50.240;8.596;2023-07-16T11:54:56;22.80;95.10
3690;DHT22;1861;50.240;8.596;2023-07-16T11:57:28;22.90;95.70
3690;DHT22;1861;50.240;8.596;2023-07-16T11:59:56;22.80;95.20
3690;DHT22;1861;50.240;8.596;2023-07-16T12:02:25;22.80;95.90
3690;DHT22;1861;50.240;8.596;2023-07-16T12:04:55;22.90;96.30
3690;DHT22;1861;50.240;8.596;2023-07-16T12:07:34;22.90;96.20
3690;DHT22;1861;50.240;8.596;2023-07-16T12:10:04;23.00;96.00
3690;DHT22;1861;50.240;8.596;2023-07-16T12:12:35;23.10;96.30
3690;DHT22;1861;50.240;8.596;2023-07-16T12:15:06;23.10;96.20
3690;DHT22;1861;50.240;8.596;2023-07-16T12:17:34;23.10;95.80
3690;DHT22;1861;50.240;8.596;2023-07-16T12:20:04;23.10;95.10
3690;DHT22;1861;50.240;8.596;2023-07-16T12:22:32;23.10;95.40
3690;DHT22;1861;50.240;8.596;2023-07-16T12:25:01;23.20;94.80
3690;DHT22;1861;50.240;8.596;2023-07-16T12:27:29;23.20;94.00
3690;DHT22;1861;50.240;8.596;2023-07-16T12:29:59;23.30;94.20
3690;DHT22;1861;50.240;8.596;2023-07-16T12:32:27;23.30;94.10
3690;DHT22;1861;50.240;8.596;2023-07-16T12:34:55;23.30;94.20
3690;DHT22;1861;50.240;8.596;2023-07-16T12:37:24;23.30;94.60
3690;DHT22;1861;50.240;8.596;2023-07-16T12:39:52;23.30;95.00
3690;DHT22;1861;50.240;8.596;2023-07-16T12:42:21;23.30;95.20
3690;DHT22;1861;50.240;8.596;2023-07-16T12:44:49;23.20;94.80
3690;DHT22;1861;50.240;8.596;2023-07-16T12:47:18;23.30;94.80
3690;DHT22;1861;50.240;8.596;2023-07-16T12:49:46;23.10;94.50
3690;DHT22;1861;50.240;8.596;2023-07-16T12:52:14;23.10;95.00
3690;DHT22;1861;50.240;8.596;2023-07-16T12:54:42;23.20;95.20
3690;DHT22;1861;50.240;8.596;2023-07-16T12:57:11;23.20;95.40
3690;DHT22;1861;50.240;8.596;2023-07-16T12:59:39;23.30;95.60
3690;DHT22;1861;50.240;8.596;2023-07-16T13:02:07;23.30;95.70
3690;DHT22;1861;50.240;8.596;2023-07-16T13:04:36;23.40;95.70
3690;DHT22;1861;50.240;8.596;2023-07-16T13:07:05;23.40;95.70
3690;DHT22;1861;50.240;8.596;2023-07-16T13:09:33;23.40;95.30
3690;DHT22;1861;50.240;8.596;2023-07-16T13:12:01;23.40;95.70
3690;DHT22;1861;50.240;8.596;2023-07-16T13:14:30;23.40;96.00
3690;DHT22;1861;50.240;8.596;2023-07-16T13:16:58;23.40;96.10
3690;DHT22;1861;50.240;8.596;2023-07-16T13:19:28;23.40;95.90
3690;DHT22;1861;50.240;8.596;2023-07-16T13:21:58;23.40;96.00
3690;DHT22;1861;50.240;8.596;2023-07-16T13:24:26;23.40;96.10
3690;DHT22;1861;50.240;8.596;2023-07-16T13:26:54;23.40;95.90
3690;DHT22;1861;50.240;8.596;2023-07-16T13:29:22;23.40;96.10
3690;DHT22;1861;50.240;8.596;2023-07-16T13:31:51;23.40;96.00
3690;DHT22;1861;50.240;8.596;2023-07-16T13:34:19;23.40;95.80
3690;DHT22;1861;50.240;8.596;2023-07-16T13:36:47;23.40;96.20
3690;DHT22;1861;50.240;8.596;2023-07-16T13:39:16;23.50;95.30
3690;DHT22;1861;50.240;8.596;2023-07-16T13:41:44;23.40;94.80
3690;DHT22;1861;50.240;8.596;2023-07-16T13:44:12;23.50;95.20
3690;DHT22;1861;50.240;8.596;2023-07-16T13:46:41;23.90;94.70
3690;DHT22;1861;50.240;8.596;2023-07-16T13:49:10;24.70;93.70
3690;DHT22;1861;50.240;8.596;2023-07-16T13:51:38;25.20;92.20
3690;DHT22;1861;50.240;8.596;2023-07-16T13:54:06;25.90;91.70
3690;DHT22;1861;50.240;8.596;2023-07-16T13:56:35;25.90;91.80
3690;DHT22;1861;50.240;8.596;2023-07-16T13:59:04;25.80;90.60
3690;DHT22;1861;50.240;8.596;2023-07-16T14:01:32;25.50;91.80
3690;DHT22;1861;50.240;8.596;2023-07-16T14:04:00;26.00;91.70
3690;DHT22;1861;50.240;8.596;2023-07-16T14:06:28;26.10;91.40
3690;DHT22;1861;50.240;8.596;2023-07-16T14:08:56;25.20;91.40
3690;DHT22;1861;50.240;8.596;2023-07-16T14:11:25;24.50;92.60
3690;DHT22;1861;50.240;8.596;2023-07-16T14:13:54;24.10;92.90
3690;DHT22;1861;50.240;8.596;2023-07-16T14:16:23;24.30;92.80
3690;DHT22;1861;50.240;8.596;2023-07-16T14:18:52;24.00;92.50
3690;DHT22;1861;50.240;8.596;2023-07-16T14:21:20;24.10;92.70
3690;DHT22;1861;50.240;8.596;2023-07-16T14:23:48;24.20;93.00
3690;DHT22;1861;50.240;8.596;2023-07-16T14:26:17;24.00;93.20
3690;DHT22;1861;50.240;8.596;2023-07-16T14:28:45;23.80;92.90
3690;DHT22;1861;50.240;8.596;2023-07-16T14:31:15;23.70;92.90
3690;DHT22;1861;50.240;8.596;2023-07-16T14:33:43;23.70;92.90
3690;DHT22;1861;50.240;8.596;2023-07-16T14:36:11;23.60;93.20
3690;DHT22;1861;50.240;8.596;2023-07-16T14:38:39;23.60;93.60
3690;DHT22;1861;50.240;8.596;2023-07-16T14:41:07;23.50;93.70
3690;DHT22;1861;50.240;8.596;2023-07-16T14:43:35;23.50;93.60
3690;DHT22;1861;50.240;8.596;2023-07-16T14:46:04;23.50;93.30
3690;DHT22;1861;50.240;8.596;2023-07-16T14:48:34;23.40;93.30
3690;DHT22;1861;50.240;8.596;2023-07-16T14:51:02;23.40;93.10
3690;DHT22;1861;50.240;8.596;2023-07-16T14:53:32;23.40;93.20
3690;DHT22;1861;50.240;8.596;2023-07-16T14:56:00;23.30;93.10
3690;DHT22;1861;50.240;8.596;2023-07-16T14:58:28;23.30;93.00
3690;DHT22;1861;50.240;8.596;2023-07-16T15:00:59;23.30;93.10
3690;DHT22;1861;50.240;8.596;2023-07-16T15:03:27;23.20;92.90
3690;DHT22;1861;50.240;8.596;2023-07-16T15:05:58;23.30;93.00
3690;DHT22;1861;50.240;8.596;2023-07-16T15:08:26;23.30;92.50
3690;DHT22;1861;50.240;8.596;2023-07-16T15:10:54;23.30;92.40
3690;DHT22;1861;50.240;8.596;2023-07-16T15:13:22;23.30;92.60
3690;DHT22;1861;50.240;8.596;2023-07-16T15:15:52;23.30;92.70
3690;DHT22;1861;50.240;8.596;2023-07-16T15:18:20;23.30;93.10
3690;DHT22;1861;50.240;8.596;2023-07-16T15:20:48;23.30;93.40
3690;DHT22;1861;50.240;8.596;2023-07-16T15:23:18;23.30;93.60
3690;DHT22;1861;50.240;8.596;2023-07-16T15:25:46;23.30;93.90
3690;DHT22;1861;50.240;8.596;2023-07-16T15:28:14;23.30;93.70
3690;DHT22;1861;50.240;8.596;2023-07-16T15:30:42;23.20;93.30
3690;DHT22;1861;50.240;8.596;2023-07-16T15:33:11;23.20;93.30
3690;DHT22;1861;50.240;8.596;2023-07-16T15:35:39;23.20;93.50
3690;DHT22;1861;50.240;8.596;2023-07-16T15:38:07;23.20;93.70
3690;DHT22;1861;50.240;8.596;2023-07-16T15:40:37;23.30;93.80
3690;DHT22;1861;50.240;8.596;2023-07-16T15:43:05;23.20;93.60
3690;DHT22;1861;50.240;8.596;2023-07-16T15:45:33;23.20;93.60
3690;DHT22;1861;50.240;8.596;2023-07-16T15:48:01;23.10;93.40
3690;DHT22;1861;50.240;8.596;2023-07-16T15:50:29;23.20;94.00
3690;DHT22;1861;50.240;8.596;2023-07-16T15:52:57;23.20;93.80
3690;DHT22;1861;50.240;8.596;2023-07-16T15:55:26;23.20;93.90
3690;DHT22;1861;50.240;8.596;2023-07-16T15:57:57;23.20;94.20
3690;DHT22;1861;50.240;8.596;2023-07-16T16:00:28;23.20;94.20
3690;DHT22;1861;50.240;8.596;2023-07-16T16:02:56;23.30;94.40
3690;DHT22;1861;50.240;8.596;2023-07-16T16:05:25;23.20;93.90
3690;DHT22;1861;50.240;8.596;2023-07-16T16:08:14;23.30;93.80
3690;DHT22;1861;50.240;8.596;2023-07-16T16:10:44;23.30;93.80
3690;DHT22;1861;50.240;8.596;2023-07-16T16:13:16;23.30;94.50
3690;DHT22;1861;50.240;8.596;2023-07-16T16:15:45;23.20;94.60
3690;DHT22;1861;50.240;8.596;2023-07-16T16:18:13;23.20;94.20
3690;DHT22;1861;50.240;8.596;2023-07-16T16:20:43;23.20;94.10